Vila Pavao, Brazil
Current Conditions -  °F | °C
As of 10:00 AM on Saturday 20 Dec 2014 (Local Time) from SBVT Reporting Station
Scattered Clouds Scattered Clouds  
Wind Chill: 82°   Ceiling: Unl
Heat Index: 87°   Visibility: 6mi
Dew Point: 72°   Wind: 20mph
Humidity: 70%   Direction: 10°N
Pressure: 29.88"   Gusts: NA
Location:  18.62°S, 40.61°W
Report Text: SBVT 201200Z 01017KT 9999 FEW030 SCT100 28/22 Q1012
Loading
Personal Weather Stations






























Interactive Weather Map New forecast layout! Learn more

10-Day Weather Forecast

Advertisements
Track Severe Weather on mobile